Time;durP1;ratioP1;P1;durP2;ratioP2;P2;SDS_P1;SDS_P2;PMS_P1;PMS_P2;Temp;Humidity;BMP_temperature;BMP_pressure;BME280_temperature;BME280_humidity;BME280_pressure;Samples;Min_cycle;Max_cycle;Signal;HPM_P1;HPM_P2
2022/01/30 00:00:47;;;;;;;7.88;3.42;;;-1.00;99.90;;;;;;5068650;28;20024;-71
2022/01/30 00:03:15;;;;;;;7.90;3.83;;;-1.00;99.90;;;;;;5070505;28;20453;-70
2022/01/30 00:05:41;;;;;;;8.18;3.38;;;-1.00;99.90;;;;;;5072627;28;20029;-71
2022/01/30 00:08:07;;;;;;;7.65;3.35;;;-1.00;99.90;;;;;;5072469;28;20036;-71
2022/01/30 00:10:38;;;;;;;7.53;3.67;;;-1.00;99.90;;;;;;5073823;28;20028;-72
2022/01/30 00:13:06;;;;;;;9.98;4.30;;;-1.00;99.90;;;;;;5074447;28;20108;-70
2022/01/30 00:15:53;;;;;;;8.98;3.50;;;-1.00;99.90;;;;;;5073451;28;20028;-71
2022/01/30 00:20:55;;;;;;;11.77;4.07;;;-1.00;99.90;;;;;;5073976;28;20028;-71
2022/01/30 00:23:25;;;;;;;6.93;3.60;;;-1.00;99.90;;;;;;5072454;28;20036;-73
2022/01/30 00:25:53;;;;;;;7.00;3.17;;;-1.00;99.90;;;;;;5073030;28;20107;-71
2022/01/30 00:28:22;;;;;;;11.98;3.88;;;-1.00;99.90;;;;;;5073130;28;20028;-72
2022/01/30 00:30:49;;;;;;;12.38;4.57;;;-1.00;99.90;;;;;;5071957;28;20036;-71
2022/01/30 00:33:14;;;;;;;7.95;3.83;;;-1.00;99.90;;;;;;5073321;28;20400;-71
2022/01/30 00:35:40;;;;;;;9.57;4.20;;;-0.90;99.90;;;;;;5071368;28;20029;-71
2022/01/30 00:38:15;;;;;;;8.50;3.70;;;-0.90;99.90;;;;;;5072244;28;20513;-71
2022/01/30 00:40:45;;;;;;;8.77;3.83;;;-0.90;99.90;;;;;;5073103;28;20523;-71
2022/01/30 00:43:11;;;;;;;7.35;3.72;;;-0.90;99.90;;;;;;5073053;28;20020;-71
2022/01/30 00:45:36;;;;;;;8.40;3.60;;;-0.90;99.90;;;;;;5072839;28;20016;-72
2022/01/30 00:48:03;;;;;;;8.23;3.97;;;-0.90;99.90;;;;;;5073600;28;20085;-71
2022/01/30 00:50:29;;;;;;;8.05;3.80;;;-0.90;99.90;;;;;;5072908;28;20080;-72
2022/01/30 00:52:55;;;;;;;9.00;4.32;;;-0.90;99.90;;;;;;5073729;28;20051;-71
2022/01/30 00:55:28;;;;;;;7.20;3.28;;;-0.80;99.90;;;;;;5072495;28;20083;-71
2022/01/30 00:57:55;;;;;;;7.72;3.88;;;-0.80;99.90;;;;;;5071905;28;20044;-72
2022/01/30 01:00:21;;;;;;;7.57;3.45;;;-0.80;99.90;;;;;;5072672;28;20044;-72
2022/01/30 01:02:47;;;;;;;7.32;3.50;;;-0.90;99.90;;;;;;5073155;28;20514;-74
2022/01/30 01:05:14;;;;;;;9.60;3.60;;;-0.80;99.90;;;;;;5072403;28;20028;-72
2022/01/30 01:07:44;;;;;;;;;;;-0.80;99.90;;;;;;5073622;28;20411;-73
2022/01/30 01:10:27;;;;;;;6.80;3.33;;;-0.80;99.90;;;;;;5072581;28;19944;-72
2022/01/30 01:13:08;;;;;;;10.73;3.92;;;-0.80;99.90;;;;;;5072789;28;20039;-71
2022/01/30 01:23:52;;;;;;;8.82;4.20;;;-0.80;99.90;;;;;;5072811;28;20388;-72
2022/01/30 01:26:20;;;;;;;8.63;3.55;;;-0.80;99.90;;;;;;5072411;28;20448;-71
2022/01/30 01:28:47;;;;;;;7.68;3.55;;;-0.80;99.90;;;;;;5070895;28;20113;-70
2022/01/30 01:31:13;;;;;;;6.28;3.22;;;-0.80;99.90;;;;;;5071146;28;20047;-71
2022/01/30 01:36:08;;;;;;;9.20;3.40;;;-0.80;99.90;;;;;;5072370;28;20029;-70
2022/01/30 01:38:34;;;;;;;6.10;3.03;;;-0.80;99.90;;;;;;5072298;28;20016;-72
2022/01/30 01:41:00;;;;;;;8.43;4.00;;;-0.80;99.90;;;;;;5071582;28;20036;-72
2022/01/30 01:43:27;;;;;;;8.20;3.30;;;-0.80;99.90;;;;;;5072716;28;20024;-72
2022/01/30 01:45:55;;;;;;;7.25;3.42;;;-0.80;99.90;;;;;;5071418;28;20017;-71
2022/01/30 01:48:21;;;;;;;8.48;3.35;;;-0.80;99.90;;;;;;5070575;28;20116;-72
2022/01/30 01:51:05;;;;;;;6.53;3.72;;;-0.80;99.90;;;;;;5070370;28;20140;-71
2022/01/30 01:53:31;;;;;;;7.97;3.13;;;-0.70;99.90;;;;;;5070819;28;20097;-72
2022/01/30 01:55:57;;;;;;;9.20;3.00;;;-0.70;99.90;;;;;;5070177;28;20128;-71
2022/01/30 01:58:27;;;;;;;8.00;3.33;;;-0.70;99.90;;;;;;5071828;28;20060;-72
2022/01/30 02:00:53;;;;;;;5.38;3.13;;;-0.70;99.90;;;;;;5071534;28;20075;-72
2022/01/30 02:03:22;;;;;;;5.80;2.97;;;-0.70;99.90;;;;;;5072391;28;20017;-71
2022/01/30 02:05:53;;;;;;;6.88;3.05;;;-0.70;99.90;;;;;;5071210;28;20024;-72
2022/01/30 02:08:31;;;;;;;5.85;3.20;;;-0.80;99.90;;;;;;5070380;28;20070;-72
2022/01/30 02:27:05;;;;;;;4.95;2.92;;;-1.30;99.90;;;;;;5071458;28;20120;-70
2022/01/30 02:29:31;;;;;;;6.85;3.22;;;-1.40;99.90;;;;;;5070852;28;20056;-71
2022/01/30 02:31:59;;;;;;;8.48;3.47;;;-1.40;99.90;;;;;;5071624;28;20029;-72
2022/01/30 02:34:29;;;;;;;8.35;3.17;;;-1.40;99.90;;;;;;5069057;28;20028;-70
2022/01/30 02:36:55;;;;;;;7.60;3.35;;;-1.40;99.90;;;;;;5071435;28;20082;-71
2022/01/30 02:39:21;;;;;;;6.80;3.30;;;-1.40;99.90;;;;;;5069414;28;20289;-70
2022/01/30 02:41:48;;;;;;;6.03;3.03;;;-1.40;99.90;;;;;;5071317;28;20119;-72
2022/01/30 02:44:20;;;;;;;10.02;3.67;;;-1.50;99.90;;;;;;5069445;28;20028;-71
2022/01/30 02:46:49;;;;;;;6.40;3.20;;;-1.50;99.90;;;;;;5069707;28;20032;-73
2022/01/30 02:51:53;;;;;;;6.45;3.20;;;-1.70;99.90;;;;;;5070705;28;20166;-70
2022/01/30 02:54:20;;;;;;;8.65;3.47;;;-1.70;99.90;;;;;;5069390;28;20481;-71
2022/01/30 02:56:46;;;;;;;8.20;3.10;;;-1.70;99.90;;;;;;5069573;28;20417;-71
2022/01/30 02:59:12;;;;;;;6.90;3.10;;;-1.80;99.90;;;;;;5070693;28;20035;-73
2022/01/30 03:01:39;;;;;;;6.88;3.13;;;-1.80;99.90;;;;;;5069431;28;20044;-71
2022/01/30 03:04:05;;;;;;;5.88;3.28;;;-1.80;99.90;;;;;;5068888;28;20020;-71
2022/01/30 03:06:31;;;;;;;6.57;2.97;;;-1.80;99.90;;;;;;5070775;28;20086;-71
2022/01/30 03:08:57;;;;;;;6.78;4.07;;;-1.80;99.90;;;;;;5070630;28;20024;-70
2022/01/30 03:11:23;;;;;;;7.83;3.37;;;-1.80;99.90;;;;;;5070060;28;20385;-70
2022/01/30 03:13:49;;;;;;;7.28;3.67;;;-1.70;99.90;;;;;;5070574;28;20032;-71
2022/01/30 03:16:15;;;;;;;7.13;3.28;;;-1.70;99.90;;;;;;5068701;28;20032;-70
2022/01/30 03:18:43;;;;;;;7.32;2.90;;;-1.70;99.90;;;;;;5070747;28;20040;-72
2022/01/30 03:21:09;;;;;;;6.90;3.40;;;-1.70;99.90;;;;;;5068817;28;20039;-69
2022/01/30 03:23:37;;;;;;;6.15;3.08;;;-1.70;99.90;;;;;;5070473;28;20052;-70
2022/01/30 03:26:04;;;;;;;4.97;3.08;;;-1.70;99.90;;;;;;5069899;28;20333;-71
2022/01/30 03:28:32;;;;;;;7.22;3.50;;;-1.70;99.90;;;;;;5070708;28;20032;-72
2022/01/30 03:31:05;;;;;;;7.90;2.90;;;-1.60;99.90;;;;;;5068502;28;20469;-71
2022/01/30 03:33:31;;;;;;;5.93;3.33;;;-1.60;99.90;;;;;;5070456;28;20357;-71
2022/01/30 03:35:58;;;;;;;9.60;3.13;;;-1.60;99.90;;;;;;5069854;28;20020;-72
2022/01/30 03:38:24;;;;;;;7.32;3.13;;;-1.50;99.90;;;;;;5069011;28;20037;-71
2022/01/30 03:40:50;;;;;;;;;;;-1.60;99.90;;;;;;5073997;28;20039;-70
2022/01/30 03:43:16;;;;;;;5.28;2.90;;;-1.50;99.90;;;;;;5073422;28;19908;-70
2022/01/30 03:45:43;;;;;;;5.22;2.42;;;-1.50;99.90;;;;;;5073899;28;20032;-70
2022/01/30 03:48:09;;;;;;;6.25;2.83;;;-1.60;99.90;;;;;;5073247;28;20373;-69
2022/01/30 03:50:35;;;;;;;7.55;3.78;;;-1.60;99.90;;;;;;5073820;28;20529;-70
2022/01/30 03:53:01;;;;;;;5.72;3.28;;;-1.60;99.90;;;;;;5073132;28;20059;-71
2022/01/30 03:55:27;;;;;;;3.70;2.28;;;-1.60;99.90;;;;;;5073870;28;20112;-72
2022/01/30 03:57:53;;;;;;;6.77;3.00;;;-1.60;99.90;;;;;;5074504;28;20111;-71
2022/01/30 04:00:19;;;;;;;7.82;2.72;;;-1.60;99.90;;;;;;5073772;28;20262;-70
2022/01/30 04:02:45;;;;;;;6.75;2.92;;;-1.60;99.90;;;;;;5074441;28;20393;-71
2022/01/30 04:05:11;;;;;;;5.68;3.00;;;-1.60;99.90;;;;;;5073930;28;20017;-71
2022/01/30 04:07:37;;;;;;;6.27;2.93;;;-1.60;99.90;;;;;;5072365;28;20044;-70
2022/01/30 04:10:05;;;;;;;6.13;2.53;;;-1.60;99.90;;;;;;5073661;28;20250;-70
2022/01/30 04:12:32;;;;;;;5.82;3.20;;;-1.60;99.90;;;;;;5073626;28;20028;-70
2022/01/30 04:15:00;;;;;;;6.20;3.50;;;-1.60;99.90;;;;;;5071910;28;20016;-70
2022/01/30 04:17:26;;;;;;;7.20;3.53;;;-1.50;99.90;;;;;;5074306;28;20098;-72
2022/01/30 04:19:52;;;;;;;5.38;3.33;;;-1.60;99.90;;;;;;5073500;28;20048;-70
2022/01/30 04:22:18;;;;;;;9.15;3.00;;;-1.50;99.90;;;;;;5072534;28;20486;-70
2022/01/30 04:24:44;;;;;;;5.73;2.90;;;-1.50;99.90;;;;;;5073302;28;20529;-72
2022/01/30 04:27:09;;;;;;;12.13;3.78;;;-1.50;99.90;;;;;;5073604;28;20032;-70
2022/01/30 04:29:36;;;;;;;7.72;3.63;;;-1.50;99.90;;;;;;5073308;28;20024;-70
2022/01/30 04:32:03;;;;;;;6.70;3.47;;;-1.50;99.90;;;;;;5073805;28;20040;-70
2022/01/30 04:34:29;;;;;;;7.28;3.20;;;-1.50;99.90;;;;;;5072892;28;20020;-70
2022/01/30 04:37:03;;;;;;;6.40;3.15;;;-1.50;99.90;;;;;;5073513;28;20107;-69
2022/01/30 04:57:58;;;;;;;8.20;3.78;;;-1.50;99.90;;;;;;5072838;28;20495;-68
2022/01/30 05:00:54;;;;;;;7.80;3.80;;;-1.50;99.90;;;;;;5072867;28;20048;-70
2022/01/30 05:03:39;;;;;;;7.82;3.30;;;-1.50;99.90;;;;;;5072891;28;20056;-70
2022/01/30 05:06:10;;;;;;;6.43;3.63;;;-1.50;99.90;;;;;;5072345;28;20023;-69
2022/01/30 05:08:36;;;;;;;7.60;4.05;;;-1.50;99.90;;;;;;5073051;28;20028;-70
2022/01/30 05:11:05;;;;;;;9.68;4.13;;;-1.60;99.90;;;;;;5072621;28;20031;-70
2022/01/30 05:13:33;;;;;;;11.20;3.85;;;-1.60;99.90;;;;;;5072681;28;20048;-71
2022/01/30 05:15:59;;;;;;;7.20;3.72;;;-1.70;99.90;;;;;;5072581;28;20459;-70
2022/01/30 05:18:28;;;;;;;8.30;3.78;;;-1.70;99.90;;;;;;5072765;28;20033;-69
2022/01/30 05:20:54;;;;;;;7.22;3.83;;;-1.70;99.90;;;;;;5072851;28;20064;-69
2022/01/30 05:23:20;;;;;;;5.68;3.30;;;-1.70;99.90;;;;;;5072817;28;20116;-70
2022/01/30 05:25:51;;;;;;;7.88;4.25;;;-1.70;99.90;;;;;;5072153;28;20027;-69
2022/01/30 05:28:19;;;;;;;11.50;3.75;;;-1.70;99.90;;;;;;5072723;28;20044;-71
2022/01/30 05:30:45;;;;;;;7.78;4.10;;;-1.70;99.90;;;;;;5070972;28;20029;-69
2022/01/30 05:33:12;;;;;;;22.08;4.63;;;-1.80;99.90;;;;;;5072901;28;20040;-70
2022/01/30 05:35:39;;;;;;;8.25;4.13;;;-1.80;99.90;;;;;;5070710;28;20086;-70
2022/01/30 05:38:05;;;;;;;7.97;4.03;;;-1.80;99.90;;;;;;5072933;28;20384;-69
2022/01/30 05:40:32;;;;;;;6.75;3.97;;;-1.80;99.90;;;;;;5071984;28;20032;-71
2022/01/30 05:42:58;;;;;;;8.30;4.45;;;-1.80;99.90;;;;;;5072684;28;20028;-70
2022/01/30 05:47:57;;;;;;;8.27;4.20;;;-1.70;99.90;;;;;;5072719;28;19986;-68
2022/01/30 05:50:23;;;;;;;9.27;3.90;;;-1.80;99.90;;;;;;5071858;28;20060;-69
2022/01/30 05:52:49;;;;;;;9.55;4.85;;;-1.70;99.90;;;;;;5072001;28;20376;-68
2022/01/30 05:55:15;;;;;;;10.40;4.63;;;-1.70;99.90;;;;;;5071871;28;20091;-69
2022/01/30 05:57:41;;;;;;;9.55;4.50;;;-1.70;99.90;;;;;;5072214;28;20040;-70
2022/01/30 06:00:09;;;;;;;10.70;5.00;;;-1.70;99.90;;;;;;5071610;28;20037;-70
2022/01/30 06:02:35;;;;;;;8.15;4.20;;;-1.80;99.90;;;;;;5071357;28;20279;-70
2022/01/30 06:05:01;;;;;;;9.70;4.53;;;-1.70;99.90;;;;;;5069720;28;20028;-71
2022/01/30 06:07:31;;;;;;;11.15;4.70;;;-1.70;99.90;;;;;;5071754;28;20033;-70
2022/01/30 06:09:56;;;;;;;8.13;4.47;;;-1.60;99.90;;;;;;5071398;28;20043;-69
2022/01/30 06:12:22;;;;;;;11.00;4.63;;;-1.60;99.90;;;;;;5072012;28;20028;-71
2022/01/30 06:14:48;;;;;;;8.27;4.60;;;-1.70;99.90;;;;;;5071486;28;20044;-69
2022/01/30 06:17:16;;;;;;;10.17;4.70;;;-1.70;99.90;;;;;;5072037;28;20541;-70
2022/01/30 06:19:42;;;;;;;8.43;4.70;;;-1.60;99.90;;;;;;5071053;28;20788;-69
2022/01/30 06:22:08;;;;;;;8.50;5.17;;;-1.60;99.90;;;;;;5071246;28;20036;-70
2022/01/30 06:24:33;;;;;;;9.20;4.97;;;-1.60;99.90;;;;;;5070820;28;20021;-69
2022/01/30 06:26:59;;;;;;;10.90;4.73;;;-1.50;99.90;;;;;;5070274;28;20033;-69
2022/01/30 06:29:25;;;;;;;11.10;5.37;;;-1.50;99.90;;;;;;5070874;28;20257;-69
2022/01/30 06:31:50;;;;;;;11.03;5.43;;;-1.50;99.90;;;;;;5071574;28;20349;-69
2022/01/30 06:34:16;;;;;;;8.83;4.37;;;-1.50;99.90;;;;;;5071032;28;20714;-70
2022/01/30 06:36:42;;;;;;;8.77;4.70;;;-1.50;99.90;;;;;;5071699;28;20048;-70
2022/01/30 06:39:07;;;;;;;11.27;5.20;;;-1.40;99.90;;;;;;5071157;28;20086;-70
2022/01/30 06:41:33;;;;;;;10.80;5.67;;;-1.50;99.90;;;;;;5071148;28;20384;-70
2022/01/30 06:43:59;;;;;;;11.77;5.85;;;-1.40;99.90;;;;;;5069298;28;20028;-71
2022/01/30 06:46:25;;;;;;;9.10;4.95;;;-1.40;99.90;;;;;;5070894;28;20480;-69
2022/01/30 06:48:51;;;;;;;11.67;5.90;;;-1.30;99.90;;;;;;5070699;28;20110;-70
2022/01/30 06:51:16;;;;;;;9.43;5.53;;;-1.30;99.90;;;;;;5070564;28;20067;-69
2022/01/30 06:53:42;;;;;;;9.10;5.97;;;-1.30;99.90;;;;;;5070700;28;20035;-69
2022/01/30 06:56:08;;;;;;;13.03;6.57;;;-1.30;99.90;;;;;;5070510;28;20028;-70
2022/01/30 06:58:34;;;;;;;8.17;4.80;;;-1.20;99.90;;;;;;5069544;28;20031;-70
2022/01/30 07:00:59;;;;;;;11.45;5.55;;;-1.10;99.90;;;;;;5070401;28;20375;-69
2022/01/30 07:03:25;;;;;;;13.50;6.00;;;-1.00;99.90;;;;;;5070988;28;20412;-69
2022/01/30 07:05:51;;;;;;;10.67;5.90;;;-1.00;99.90;;;;;;5070139;28;20056;-69
2022/01/30 07:08:17;;;;;;;9.80;5.00;;;-0.90;99.90;;;;;;5069373;28;20348;-69
2022/01/30 07:10:42;;;;;;;11.70;5.87;;;-0.80;99.90;;;;;;5070316;28;20296;-70
2022/01/30 07:13:10;;;;;;;12.83;6.07;;;-0.80;99.90;;;;;;5071071;28;20063;-70
2022/01/30 07:15:36;;;;;;;10.63;5.22;;;-0.90;99.90;;;;;;5070172;28;20082;-70
2022/01/30 07:18:01;;;;;;;11.63;5.90;;;-0.80;99.90;;;;;;5070844;28;20032;-70
2022/01/30 07:20:27;;;;;;;11.85;5.43;;;-0.70;99.90;;;;;;5068944;28;20752;-70
2022/01/30 07:22:53;;;;;;;10.07;5.27;;;-0.70;99.90;;;;;;5071116;28;20093;-67
2022/01/30 07:25:19;;;;;;;10.13;6.07;;;-0.70;99.90;;;;;;5069031;28;20102;-67
2022/01/30 07:27:44;;;;;;;13.80;6.63;;;-0.60;99.90;;;;;;5070412;28;20040;-65
2022/01/30 07:30:10;;;;;;;9.57;5.10;;;-0.50;99.90;;;;;;5069653;28;20028;-64
2022/01/30 07:32:36;;;;;;;12.98;7.20;;;0.50;99.90;;;;;;5071045;28;20289;-70
2022/01/30 07:35:02;;;;;;;12.80;6.53;;;0.90;99.90;;;;;;5068667;28;20028;-70
2022/01/30 07:37:29;;;;;;;13.02;6.53;;;0.50;99.90;;;;;;5070936;28;20032;-70
2022/01/30 07:39:59;;;;;;;11.98;6.38;;;0.20;99.90;;;;;;5070026;28;20031;-72
2022/01/30 07:42:25;;;;;;;11.82;6.43;;;0.10;99.90;;;;;;5071065;28;20032;-71
2022/01/30 07:44:52;;;;;;;;;;;0.10;99.90;;;;;;5070536;28;20017;-70
2022/01/30 07:47:19;;;;;;;11.82;6.55;;;0.10;99.90;;;;;;5069080;28;20284;-71
2022/01/30 07:49:51;;;;;;;12.63;6.90;;;0.10;99.90;;;;;;5069495;28;20040;-70
2022/01/30 07:52:20;;;;;;;13.32;6.57;;;0.10;99.90;;;;;;5070885;28;20501;-69
2022/01/30 07:54:46;;;;;;;12.57;7.47;;;0.10;99.90;;;;;;5069832;28;20094;-71
2022/01/30 07:57:12;;;;;;;12.93;7.43;;;0.20;99.90;;;;;;5069460;28;20040;-69
2022/01/30 07:59:38;;;;;;;10.57;6.33;;;0.20;99.90;;;;;;5069931;28;20025;-70
2022/01/30 08:02:04;;;;;;;12.27;7.37;;;0.30;99.90;;;;;;5070348;28;20265;-69
2022/01/30 08:04:30;;;;;;;11.88;6.95;;;0.30;99.90;;;;;;5069826;28;20081;-70
2022/01/30 08:06:56;;;;;;;13.80;7.20;;;0.40;99.90;;;;;;5069073;28;20044;-71
2022/01/30 08:09:21;;;;;;;12.25;6.97;;;0.40;99.90;;;;;;5070144;28;20028;-71
2022/01/30 08:11:47;;;;;;;12.33;7.80;;;0.50;99.90;;;;;;5070342;28;20056;-69
2022/01/30 08:14:13;;;;;;;14.77;8.43;;;0.60;99.90;;;;;;5068695;28;20082;-71
2022/01/30 08:16:39;;;;;;;11.97;6.57;;;0.60;99.90;;;;;;5070161;28;20028;-71
2022/01/30 08:19:06;;;;;;;11.50;7.32;;;0.60;99.90;;;;;;5069990;28;20052;-71
2022/01/30 08:21:32;;;;;;;10.98;6.32;;;0.70;99.90;;;;;;5068848;28;20029;-71
2022/01/30 08:23:58;;;;;;;11.07;6.53;;;0.70;99.90;;;;;;5068745;28;20123;-70
2022/01/30 08:26:23;;;;;;;11.52;6.53;;;0.70;99.90;;;;;;5071333;28;20154;-71
2022/01/30 08:28:49;;;;;;;13.02;6.68;;;0.80;99.90;;;;;;5073897;28;20040;-69
2022/01/30 08:31:15;;;;;;;12.57;7.20;;;0.80;99.90;;;;;;5073234;28;20116;-70
2022/01/30 08:33:41;;;;;;;14.10;6.93;;;1.00;99.90;;;;;;5072140;28;20475;-70
2022/01/30 08:36:07;;;;;;;13.00;6.37;;;1.10;99.90;;;;;;5072710;28;20033;-70
2022/01/30 08:38:33;;;;;;;11.20;6.82;;;1.10;99.90;;;;;;5073629;28;20032;-70
2022/01/30 08:40:59;;;;;;;13.07;6.93;;;1.10;99.90;;;;;;5071912;28;20036;-70
2022/01/30 08:43:25;;;;;;;11.27;7.07;;;1.20;99.90;;;;;;5073539;28;20502;-70
2022/01/30 08:45:51;;;;;;;12.45;7.28;;;1.20;99.90;;;;;;5071392;28;20025;-70
2022/01/30 08:48:18;;;;;;;13.57;7.07;;;1.30;99.90;;;;;;5073642;28;20644;-70
2022/01/30 08:50:44;;;;;;;;;;;1.40;99.90;;;;;;5071954;28;20048;-70
2022/01/30 08:53:10;;;;;;;12.38;7.18;;;1.40;99.90;;;;;;5073722;28;20011;-70
2022/01/30 08:55:36;;;;;;;15.27;7.10;;;1.40;99.90;;;;;;5072391;28;20100;-73
2022/01/30 08:58:09;;;;;;;13.30;7.10;;;1.40;99.90;;;;;;5073657;28;20055;-70
2022/01/30 09:00:43;;;;;;;12.48;6.80;;;1.50;99.90;;;;;;5072906;28;20031;-71
2022/01/30 09:03:09;;;;;;;11.75;6.43;;;1.70;99.90;;;;;;5071989;28;20064;-73
2022/01/30 09:05:35;;;;;;;;;;;1.80;99.90;;;;;;5073179;28;20373;-71
2022/01/30 09:08:04;;;;;;;11.55;6.32;;;2.00;99.90;;;;;;5073738;28;19912;-72
2022/01/30 09:10:33;;;;;;;12.10;6.55;;;2.00;99.90;;;;;;5073256;28;20111;-72
2022/01/30 09:12:59;;;;;;;12.50;6.38;;;2.10;99.90;;;;;;5072481;28;20036;-70
2022/01/30 09:15:25;;;;;;;11.50;6.25;;;2.10;99.90;;;;;;5071649;28;20040;-71
2022/01/30 09:17:56;;;;;;;11.50;6.25;;;2.20;99.90;;;;;;5073651;28;20044;-72
2022/01/30 09:20:22;;;;;;;11.10;6.00;;;2.20;99.90;;;;;;5071717;28;20074;-70
2022/01/30 09:22:48;;;;;;;10.38;6.50;;;2.30;99.90;;;;;;5073617;28;20028;-70
2022/01/30 09:25:14;;;;;;;11.40;6.60;;;2.40;99.90;;;;;;5072803;28;20493;-71
2022/01/30 09:27:40;;;;;;;12.15;5.78;;;2.40;99.90;;;;;;5071680;28;20025;-71
2022/01/30 09:30:07;;;;;;;12.33;7.23;;;2.50;99.90;;;;;;5072917;28;20165;-71
2022/01/30 09:32:33;;;;;;;10.73;6.07;;;2.70;99.90;;;;;;5071506;28;20043;-73
2022/01/30 09:34:59;;;;;;;9.65;5.28;;;2.80;99.90;;;;;;5072032;28;20008;-72
2022/01/30 09:37:25;;;;;;;10.67;6.03;;;3.10;99.90;;;;;;5070322;28;20040;-71
2022/01/30 09:39:51;;;;;;;9.83;5.63;;;3.20;99.90;;;;;;5070916;28;20034;-71
2022/01/30 09:42:17;;;;;;;10.67;6.00;;;3.40;99.90;;;;;;5072699;28;20064;-73
2022/01/30 09:44:43;;;;;;;7.10;4.60;;;3.60;99.90;;;;;;5072240;28;20021;-73
2022/01/30 09:47:10;;;;;;;;;;;3.50;99.90;;;;;;5073252;28;20037;-70
2022/01/30 09:49:39;;;;;;;9.85;4.82;;;3.50;99.90;;;;;;5072099;28;20312;-70
2022/01/30 09:52:06;;;;;;;7.43;4.57;;;3.40;99.90;;;;;;5054625;28;20028;-71
2022/01/30 09:54:32;;;;;;;5.82;3.80;;;3.40;99.90;;;;;;5071619;28;20028;-74
2022/01/30 09:57:00;;;;;;;10.15;5.00;;;3.40;99.90;;;;;;5072591;28;20047;-72
2022/01/30 09:59:25;;;;;;;9.27;4.45;;;3.40;99.90;;;;;;5071776;28;20044;-73
2022/01/30 10:01:52;;;;;;;7.15;4.10;;;3.50;99.90;;;;;;5072074;28;20056;-72
2022/01/30 10:04:19;;;;;;;6.73;3.67;;;3.60;99.90;;;;;;5071278;28;20407;-71
2022/01/30 10:07:03;;;;;;;7.35;3.50;;;3.70;99.90;;;;;;5070257;28;20028;-73
2022/01/30 10:09:33;;;;;;;6.85;3.35;;;3.80;99.90;;;;;;5069930;28;20029;-72
2022/01/30 10:12:15;;;;;;;7.70;3.80;;;3.80;99.90;;;;;;5070721;28;20036;-72
2022/01/30 10:15:02;;;;;;;8.43;3.80;;;3.70;99.90;;;;;;5071511;28;20018;-71
2022/01/30 10:17:38;;;;;;;6.82;3.60;;;3.70;99.90;;;;;;5070526;28;20037;-71
2022/01/30 10:20:11;;;;;;;6.55;3.28;;;3.80;99.90;;;;;;5071457;28;20032;-71
2022/01/30 10:22:59;;;;;;;6.50;3.67;;;3.80;99.90;;;;;;5072483;28;20037;-73
2022/01/30 10:25:26;;;;;;;;;;;3.80;99.90;;;;;;5070319;28;20029;-71
2022/01/30 10:28:12;;;;;;;7.38;3.63;;;3.70;99.90;;;;;;5070220;28;19924;-72
2022/01/30 10:30:44;;;;;;;7.68;3.67;;;3.70;99.90;;;;;;5071555;28;20021;-72
2022/01/30 10:33:12;;;;;;;9.10;3.65;;;3.70;99.90;;;;;;5070427;28;20031;-71
2022/01/30 10:35:52;;;;;;;7.10;3.75;;;3.70;99.90;;;;;;5070973;28;20460;-70
2022/01/30 10:38:25;;;;;;;5.65;3.10;;;3.70;99.90;;;;;;5071109;28;20059;-73
2022/01/30 10:40:53;;;;;;;8.88;3.97;;;3.70;99.90;;;;;;5069518;28;20029;-72
2022/01/30 10:43:19;;;;;;;7.53;3.80;;;3.60;99.90;;;;;;5071976;28;20044;-71
2022/01/30 10:45:45;;;;;;;8.77;4.10;;;3.60;99.90;;;;;;5069537;28;20096;-73
2022/01/30 10:48:23;;;;;;;8.27;4.27;;;3.60;99.90;;;;;;5070153;28;20051;-75
2022/01/30 10:50:49;;;;;;;6.07;3.67;;;3.50;99.90;;;;;;5071323;28;20033;-72
2022/01/30 10:53:26;;;;;;;7.57;3.57;;;3.50;99.90;;;;;;5071501;28;20040;-72
2022/01/30 10:55:52;;;;;;;7.97;3.60;;;4.20;99.90;;;;;;5070546;28;20119;-66
2022/01/30 10:58:23;;;;;;;6.72;3.97;;;3.50;99.90;;;;;;5071819;28;20064;-65
2022/01/30 11:00:56;;;;;;;6.85;3.38;;;3.50;99.90;;;;;;5071259;28;20020;-67
2022/01/30 11:03:51;;;;;;;8.23;3.10;;;3.50;99.90;;;;;;5071932;28;20028;-66
2022/01/30 11:06:17;;;;;;;6.05;2.92;;;3.50;99.90;;;;;;5071949;28;20060;-69
2022/01/30 11:08:47;;;;;;;6.32;3.63;;;3.50;99.90;;;;;;5071607;28;20036;-65
2022/01/30 11:19:20;;;;;;;9.30;3.70;;;3.90;99.90;;;;;;5054354;28;20185;-67
2022/01/30 11:21:51;;;;;;;5.50;3.00;;;4.10;99.90;;;;;;5071529;28;20082;-67
2022/01/30 11:24:19;;;;;;;8.52;3.08;;;4.60;99.90;;;;;;5070274;28;20370;-68
2022/01/30 11:26:46;;;;;;;7.00;3.58;;;5.20;99.90;;;;;;5070177;28;20029;-67
2022/01/30 11:29:15;;;;;;;7.13;3.00;;;5.70;99.90;;;;;;5070186;28;20028;-69
2022/01/30 11:31:43;;;;;;;6.82;2.83;;;5.90;99.90;;;;;;5070385;28;20045;-66
2022/01/30 11:34:09;;;;;;;8.85;3.63;;;5.60;99.90;;;;;;5071482;28;20039;-68
2022/01/30 11:36:38;;;;;;;7.13;3.30;;;5.30;99.90;;;;;;5072050;28;20037;-67
2022/01/30 11:39:05;;;;;;;5.80;2.55;;;5.00;99.90;;;;;;5069957;28;20434;-68
2022/01/30 11:41:34;;;;;;;8.32;3.30;;;4.80;99.90;;;;;;5071966;28;20427;-69
2022/01/30 11:44:18;;;;;;;7.95;2.65;;;4.70;99.90;;;;;;5071329;28;20083;-70
2022/01/30 11:47:04;;;;;;;5.88;2.92;;;4.60;99.90;;;;;;5071594;28;20325;-68
2022/01/30 11:49:49;;;;;;;8.73;2.58;;;4.70;99.90;;;;;;5070296;28;20052;-70
2022/01/30 11:52:17;;;;;;;6.47;2.30;;;4.70;99.90;;;;;;5070142;28;20059;-69
2022/01/30 11:54:47;;;;;;;5.20;2.28;;;4.60;99.90;;;;;;5070881;28;20021;-69
2022/01/30 11:57:22;;;;;;;7.55;2.85;;;4.60;99.90;;;;;;5071125;28;20024;-68
2022/01/30 11:59:53;;;;;;;5.50;2.25;;;4.50;99.90;;;;;;5071026;28;20032;-67
2022/01/30 12:02:33;;;;;;;6.97;2.67;;;4.50;99.90;;;;;;5075231;28;20101;-69
2022/01/30 12:05:03;;;;;;;6.07;2.97;;;4.40;99.90;;;;;;5073049;28;20031;-68
2022/01/30 12:07:35;;;;;;;8.30;2.33;;;4.40;99.90;;;;;;5075184;28;20116;-68
2022/01/30 12:10:16;;;;;;;7.07;2.42;;;4.40;99.90;;;;;;5075094;28;20103;-72
2022/01/30 12:12:59;;;;;;;6.65;3.28;;;4.40;99.90;;;;;;5075352;28;20446;-69
2022/01/30 12:15:44;;;;;;;4.13;2.22;;;4.40;99.90;;;;;;5073351;28;20032;-68
2022/01/30 12:18:15;;;;;;;5.68;2.20;;;4.40;99.90;;;;;;5074947;28;20051;-68
2022/01/30 12:21:04;;;;;;;5.00;2.75;;;4.40;99.90;;;;;;5074186;28;20032;-70
2022/01/30 12:23:36;;;;;;;6.60;2.28;;;4.50;99.90;;;;;;5074828;28;20033;-69
2022/01/30 12:26:15;;;;;;;8.25;2.45;;;4.60;99.90;;;;;;5074251;28;20021;-68
2022/01/30 12:28:43;;;;;;;7.93;2.50;;;4.60;99.90;;;;;;5074103;28;20037;-68
2022/01/30 12:31:33;;;;;;;7.95;3.17;;;4.70;99.90;;;;;;5072743;28;20484;-69
2022/01/30 12:34:09;;;;;;;7.13;2.65;;;4.60;99.90;;;;;;5073701;28;20087;-71
2022/01/30 12:36:43;;;;;;;8.35;3.53;;;4.60;99.90;;;;;;5074222;28;20040;-69
2022/01/30 12:39:16;;;;;;;5.80;2.65;;;4.50;99.90;;;;;;5073820;28;20025;-68
2022/01/30 12:41:42;;;;;;;6.50;2.35;;;4.50;99.90;;;;;;5074253;28;20029;-69
2022/01/30 12:44:11;;;;;;;5.60;2.53;;;4.50;99.90;;;;;;5073653;28;20029;-70
2022/01/30 12:46:39;;;;;;;4.40;2.10;;;4.50;99.90;;;;;;5074289;28;20032;-69
2022/01/30 12:49:12;;;;;;;8.43;2.58;;;4.40;99.90;;;;;;5072029;28;20044;-69
2022/01/30 12:51:40;;;;;;;6.53;2.25;;;4.40;99.90;;;;;;5071970;28;20120;-69
2022/01/30 12:54:07;;;;;;;5.07;2.30;;;4.60;99.90;;;;;;5073114;28;20044;-69
2022/01/30 12:56:33;;;;;;;;;;;4.60;99.90;;;;;;5074165;28;20109;-68
2022/01/30 12:59:06;;;;;;;8.05;2.80;;;4.60;99.90;;;;;;5073677;28;19919;-68
2022/01/30 13:01:38;;;;;;;6.13;2.40;;;4.50;99.90;;;;;;5053530;28;20021;-67
2022/01/30 13:04:06;;;;;;;6.00;2.08;;;4.50;99.90;;;;;;5053531;28;20017;-68
2022/01/30 13:06:38;;;;;;;5.55;2.40;;;4.40;99.90;;;;;;5073511;28;20119;-68
2022/01/30 13:09:05;;;;;;;6.95;2.47;;;4.30;99.90;;;;;;5073248;28;20114;-66
2022/01/30 13:11:31;;;;;;;7.15;2.17;;;4.20;99.90;;;;;;5073399;28;20366;-67
2022/01/30 13:14:04;;;;;;;6.00;2.90;;;4.20;99.90;;;;;;5073171;28;20035;-67
2022/01/30 13:16:36;;;;;;;4.53;2.63;;;4.20;99.90;;;;;;5051959;28;20484;-65
2022/01/30 13:19:05;;;;;;;8.63;2.80;;;4.10;99.90;;;;;;5052017;28;20329;-68
2022/01/30 13:21:32;;;;;;;8.15;2.88;;;4.10;99.90;;;;;;5073540;28;20033;-67
2022/01/30 13:24:00;;;;;;;5.43;2.22;;;4.00;99.90;;;;;;5073456;28;20058;-68
2022/01/30 13:26:39;;;;;;;5.78;2.35;;;4.00;99.90;;;;;;5053368;28;20043;-65
2022/01/30 13:29:20;;;;;;;6.25;2.45;;;4.00;99.90;;;;;;5052776;28;20102;-67
2022/01/30 13:31:51;;;;;;;6.00;2.63;;;4.00;99.90;;;;;;5053320;28;20078;-67
2022/01/30 13:34:33;;;;;;;6.95;3.00;;;4.00;99.90;;;;;;5055081;28;20079;-67
2022/01/30 13:37:05;;;;;;;5.43;2.38;;;4.00;99.90;;;;;;5071740;28;20472;-67
2022/01/30 13:39:46;;;;;;;10.60;3.38;;;4.00;99.90;;;;;;5072181;28;20224;-68
2022/01/30 13:42:34;;;;;;;5.63;2.70;;;4.00;99.90;;;;;;5073324;28;20266;-66
2022/01/30 13:47:54;;;;;;;5.00;2.00;;;4.00;99.90;;;;;;5073346;28;19912;-68
2022/01/30 13:50:24;;;;;;;5.28;2.67;;;3.90;99.90;;;;;;5072113;28;20519;-66
2022/01/30 13:53:00;;;;;;;4.55;2.70;;;3.90;99.90;;;;;;5073229;28;20033;-67
2022/01/30 13:55:26;;;;;;;5.30;2.35;;;3.80;99.90;;;;;;5072241;28;20021;-67
2022/01/30 13:57:57;;;;;;;8.98;2.95;;;3.90;99.90;;;;;;5072953;28;20056;-67
2022/01/30 14:00:24;;;;;;;7.05;3.58;;;3.90;99.90;;;;;;5071667;28;20405;-67
2022/01/30 14:02:55;;;;;;;6.50;2.85;;;3.80;99.90;;;;;;5073193;28;20434;-67